Time;durP1;ratioP1;P1;durP2;ratioP2;P2;SDS_P1;SDS_P2;PMS_P1;PMS_P2;Temp;Humidity;BMP_temperature;BMP_pressure;BME280_temperature;BME280_humidity;BME280_pressure;Samples;Min_cycle;Max_cycle;Signal;HPM_P1;HPM_P2
2021/12/18 00:02:07;;;;;;;;;;;0.00;94.30;;;;;;5075523;28;19949;-66
2021/12/18 00:04:32;;;;;;;;;;;0.00;94.40;;;;;;5075973;28;19942;-67
2021/12/18 00:06:58;;;;;;;;;;;0.10;94.40;;;;;;5075664;28;20443;-67
2021/12/18 00:09:25;;;;;;;;;;;0.00;94.20;;;;;;5075571;28;20005;-66
2021/12/18 00:11:51;;;;;;;;;;;0.00;94.10;;;;;;5075483;28;19989;-66
2021/12/18 00:14:17;;;;;;;;;;;0.00;94.10;;;;;;5075601;28;20097;-66
2021/12/18 00:16:42;;;;;;;;;;;0.00;94.20;;;;;;5075541;28;20207;-66
2021/12/18 00:19:08;;;;;;;;;;;0.00;94.30;;;;;;5075393;28;20080;-66
2021/12/18 00:21:36;;;;;;;;;;;0.10;94.20;;;;;;5075429;28;19935;-66
2021/12/18 00:24:03;;;;;;;;;;;0.10;93.80;;;;;;5075394;28;19951;-66
2021/12/18 00:26:29;;;;;;;;;;;-3276.70;93.30;;;;;;5075227;28;19949;-66
2021/12/18 00:28:54;;;;;;;;;;;-3276.70;93.80;;;;;;5075289;28;20005;-66
2021/12/18 00:31:20;;;;;;;;;;;-3276.70;94.10;;;;;;5075300;28;19949;-66
2021/12/18 00:33:45;;;;;;;;;;;-3276.70;94.50;;;;;;5075172;28;19948;-67
2021/12/18 00:36:11;;;;;;;;;;;0.00;94.70;;;;;;5075159;28;19976;-66
2021/12/18 00:38:39;;;;;;;;;;;0.00;94.70;;;;;;5075032;28;19988;-66
2021/12/18 00:43:36;;;;;;;;;;;0.00;94.80;;;;;;5075351;28;20200;-66
2021/12/18 00:46:02;;;;;;;;;;;0.00;95.00;;;;;;5074940;28;19986;-66
2021/12/18 00:48:28;;;;;;;;;;;0.00;95.20;;;;;;5074853;28;19941;-66
2021/12/18 00:50:54;;;;;;;;;;;0.10;95.20;;;;;;5074821;28;19976;-66
2021/12/18 00:53:19;;;;;;;;;;;0.20;95.10;;;;;;5074745;28;19985;-66
2021/12/18 00:55:45;;;;;;;;;;;0.20;95.10;;;;;;5074698;28;20031;-66
2021/12/18 00:58:11;;;;;;;;;;;0.20;95.10;;;;;;5074626;28;19945;-66
2021/12/18 01:00:38;;;;;;;;;;;0.20;95.00;;;;;;5074637;28;19942;-66
2021/12/18 01:03:04;;;;;;;;;;;0.20;94.90;;;;;;5073288;28;19953;-66
2021/12/18 01:05:31;;;;;;;;;;;0.30;94.80;;;;;;5074597;28;19939;-66
2021/12/18 01:07:58;;;;;;;;;;;0.50;94.80;;;;;;5074514;28;19936;-66
2021/12/18 01:12:52;;;;;;;;;;;0.00;92.70;;;;;;5073981;28;19949;-66
2021/12/18 01:23:44;;;;;;;;;;;0.00;93.20;;;;;;5074229;28;19988;-66
2021/12/18 01:26:09;;;;;;;;;;;0.00;93.10;;;;;;5074011;28;19979;-66
2021/12/18 01:28:35;;;;;;;;;;;0.00;93.30;;;;;;5074074;28;19936;-66
2021/12/18 01:31:01;;;;;;;;;;;0.00;93.50;;;;;;5074078;28;19996;-66
2021/12/18 01:33:26;;;;;;;;;;;0.00;93.60;;;;;;5072671;28;19948;-66
2021/12/18 01:35:55;;;;;;;;;;;0.00;93.30;;;;;;5073984;28;20024;-66
2021/12/18 01:38:23;;;;;;;;;;;0.00;93.30;;;;;;5074097;28;19968;-66
2021/12/18 01:40:48;;;;;;;;;;;0.00;93.10;;;;;;5073868;28;19966;-66
2021/12/18 01:53:58;;;;;;;;;;;0.10;92.60;;;;;;5073621;28;19937;-66
2021/12/18 01:56:25;;;;;;;;;;;0.00;92.50;;;;;;5073600;28;19949;-66
2021/12/18 01:58:50;;;;;;;;;;;-3276.70;92.60;;;;;;5073503;28;19956;-66
2021/12/18 02:01:16;;;;;;;;;;;-3276.60;92.70;;;;;;5073527;28;19951;-66
2021/12/18 02:03:43;;;;;;;;;;;-3276.60;93.00;;;;;;5073469;28;19934;-66
2021/12/18 02:06:08;;;;;;;;;;;-3276.70;93.20;;;;;;5073767;28;19988;-66
2021/12/18 02:08:36;;;;;;;;;;;-3276.60;92.80;;;;;;5073360;28;19958;-66
2021/12/18 02:21:56;;;;;;;;;;;-3276.70;92.10;;;;;;5073255;28;19942;-66
2021/12/18 02:24:25;;;;;;;;;;;-3276.70;91.90;;;;;;5072485;28;19939;-66
2021/12/18 02:26:50;;;;;;;;;;;0.00;91.70;;;;;;5073119;28;19948;-66
2021/12/18 02:29:17;;;;;;;;;;;-3276.70;91.60;;;;;;5071875;28;19954;-66
2021/12/18 02:31:43;;;;;;;;;;;-3276.60;91.60;;;;;;5073155;28;19940;-66
2021/12/18 02:34:15;;;;;;;;;;;-3276.40;91.70;;;;;;5073121;28;20308;-66
2021/12/18 02:36:47;;;;;;;;;;;-3276.40;92.00;;;;;;5071851;28;19979;-66
2021/12/18 02:39:25;;;;;;;;;;;-3276.40;92.20;;;;;;5073007;28;20381;-66
2021/12/18 02:42:23;;;;;;;;;;;-3276.30;92.30;;;;;;5071799;28;20050;-66
2021/12/18 02:44:43;;;;;;;;;;;-3276.40;92.40;;;;;;5071859;28;20283;-66
2021/12/18 02:47:09;;;;;;;;;;;-3276.40;92.50;;;;;;5073011;28;19948;-66
2021/12/18 02:49:35;;;;;;;;;;;-3276.50;92.70;;;;;;5072970;28;20446;-66
2021/12/18 02:52:01;;;;;;;;;;;-3276.60;92.80;;;;;;5071653;28;19939;-67
2021/12/18 02:54:27;;;;;;;;;;;-3276.60;92.80;;;;;;5072917;28;20324;-66
2021/12/18 02:56:52;;;;;;;;;;;-3276.60;92.30;;;;;;5071651;28;19985;-66
2021/12/18 02:59:18;;;;;;;;;;;-3276.50;91.70;;;;;;5072787;28;19962;-66
2021/12/18 03:01:44;;;;;;;;;;;-3276.40;91.70;;;;;;5072868;28;19991;-66
2021/12/18 03:04:33;;;;;;;;;;;-3276.50;91.60;;;;;;5071534;28;19948;-66
2021/12/18 03:07:02;;;;;;;;;;;-3276.40;91.40;;;;;;5072849;28;19938;-66
2021/12/18 03:25:24;;;;;;;;;;;-3276.20;92.00;;;;;;5072873;28;20035;-66
2021/12/18 03:27:51;;;;;;;;;;;-3276.20;92.40;;;;;;5072527;28;19943;-66
2021/12/18 03:30:16;;;;;;;;;;;-3276.30;92.60;;;;;;5072495;28;19940;-67
2021/12/18 03:32:42;;;;;;;;;;;-3276.40;92.80;;;;;;5072544;28;19941;-67
2021/12/18 03:35:08;;;;;;;;;;;-3276.50;92.80;;;;;;5074432;28;19994;-67
2021/12/18 03:37:35;;;;;;;;;;;-3276.70;93.00;;;;;;5076163;28;19962;-67
2021/12/18 03:40:02;;;;;;;;;;;0.00;92.90;;;;;;5076097;28;19964;-67
2021/12/18 03:42:28;;;;;;;;;;;0.00;92.90;;;;;;5076111;28;20033;-66
2021/12/18 03:44:53;;;;;;;;;;;0.00;93.30;;;;;;5076082;28;20000;-66
2021/12/18 03:47:19;;;;;;;;;;;0.20;93.60;;;;;;5076023;28;19943;-67
2021/12/18 03:49:44;;;;;;;;;;;0.20;93.50;;;;;;5075969;28;20295;-67
2021/12/18 03:52:10;;;;;;;;;;;0.30;93.10;;;;;;5075995;28;19941;-67
2021/12/18 03:54:35;;;;;;;;;;;0.30;93.00;;;;;;5075963;28;19990;-67
2021/12/18 03:57:01;;;;;;;;;;;0.40;93.00;;;;;;5075925;28;20018;-67
2021/12/18 03:59:27;;;;;;;;;;;0.50;93.20;;;;;;5075755;28;19966;-66
2021/12/18 04:01:53;;;;;;;;;;;0.60;93.30;;;;;;5075785;28;20035;-66
2021/12/18 04:04:18;;;;;;;;;;;0.80;93.30;;;;;;5075757;28;19994;-66
2021/12/18 04:06:44;;;;;;;;;;;0.90;93.50;;;;;;5075696;28;19967;-67
2021/12/18 04:09:13;;;;;;;;;;;1.00;93.50;;;;;;5075634;28;20017;-67
2021/12/18 04:11:39;;;;;;;;;;;1.10;93.40;;;;;;5075500;28;20031;-67
2021/12/18 04:14:05;;;;;;;;;;;1.10;93.20;;;;;;5075852;28;19945;-67
2021/12/18 04:16:31;;;;;;;;;;;1.10;93.10;;;;;;5075807;28;19995;-67
2021/12/18 04:18:57;;;;;;;;;;;1.20;93.10;;;;;;5075393;28;20033;-67
2021/12/18 04:21:22;;;;;;;;;;;1.20;92.20;;;;;;5075455;28;20351;-67
2021/12/18 04:23:48;;;;;;;;;;;1.10;92.00;;;;;;5075415;28;20425;-67
2021/12/18 04:26:13;;;;;;;;;;;1.10;91.80;;;;;;5075258;28;20313;-67
2021/12/18 04:28:39;;;;;;;;;;;1.00;91.60;;;;;;5075627;28;20430;-67
2021/12/18 04:31:05;;;;;;;;;;;0.90;91.70;;;;;;5075277;28;19978;-66
2021/12/18 04:33:30;;;;;;;;;;;0.80;91.50;;;;;;5075263;28;20312;-66
2021/12/18 04:35:56;;;;;;;;;;;0.80;91.50;;;;;;5075182;28;19961;-67
2021/12/18 04:38:21;;;;;;;;;;;0.70;91.50;;;;;;5075351;28;19945;-66
2021/12/18 04:40:49;;;;;;;;;;;0.70;92.00;;;;;;5073798;28;19973;-67
2021/12/18 04:43:14;;;;;;;;;;;0.60;92.40;;;;;;5075003;28;20030;-67
2021/12/18 04:45:40;;;;;;;;;;;0.60;92.40;;;;;;5074528;28;20035;-66
2021/12/18 04:48:05;;;;;;;;;;;0.90;92.40;;;;;;5074674;28;19989;-66
2021/12/18 04:50:31;;;;;;;;;;;0.80;92.20;;;;;;5075220;28;20037;-66
2021/12/18 04:52:57;;;;;;;;;;;0.50;91.80;;;;;;5074848;28;20029;-66
2021/12/18 04:55:22;;;;;;;;;;;0.40;92.00;;;;;;5074771;28;19998;-67
2021/12/18 04:57:49;;;;;;;;;;;0.40;92.20;;;;;;5074741;28;19943;-67
2021/12/18 05:00:15;;;;;;;;;;;0.30;92.40;;;;;;5074586;28;20447;-67
2021/12/18 05:02:43;;;;;;;;;;;0.30;92.40;;;;;;5074613;28;19942;-67
2021/12/18 05:05:10;;;;;;;;;;;0.30;92.40;;;;;;5074576;28;19935;-67
2021/12/18 05:07:36;;;;;;;;;;;0.30;92.60;;;;;;5074546;28;19986;-67
2021/12/18 05:12:28;;;;;;;;;;;0.40;92.80;;;;;;5062095;22;19980;-66
2021/12/18 05:14:53;;;;;;;;;;;0.40;92.60;;;;;;5054644;28;20052;-67
2021/12/18 05:17:19;;;;;;;;;;;0.30;92.40;;;;;;5054351;28;19940;-67
2021/12/18 05:19:44;;;;;;;;;;;0.10;92.30;;;;;;5054173;28;20052;-67
2021/12/18 05:22:10;;;;;;;;;;;0.10;92.20;;;;;;5052755;28;19989;-67
2021/12/18 05:24:35;;;;;;;;;;;0.00;92.40;;;;;;5054431;28;19936;-67
2021/12/18 05:27:01;;;;;;;;;;;0.10;92.60;;;;;;5054050;28;19944;-67
2021/12/18 05:29:27;;;;;;;;;;;0.30;93.00;;;;;;5054141;28;19942;-66
2021/12/18 05:31:52;;;;;;;;;;;0.50;93.20;;;;;;5053887;28;20354;-66
2021/12/18 05:34:25;;;;;;;;;;;0.70;92.70;;;;;;5054002;28;20116;-66
2021/12/18 05:39:24;;;;;;;;;;;1.00;92.70;;;;;;5053881;28;20035;-66
2021/12/18 05:41:50;;;;;;;;;;;1.10;91.80;;;;;;5052238;28;19942;-66
2021/12/18 05:44:19;;;;;;;;;;;1.20;91.60;;;;;;5053841;28;19951;-66
2021/12/18 05:46:46;;;;;;;;;;;1.20;91.20;;;;;;5053808;28;19939;-66
2021/12/18 05:49:11;;;;;;;;;;;1.10;91.10;;;;;;5053706;28;19946;-66
2021/12/18 05:51:37;;;;;;;;;;;1.00;91.10;;;;;;5052099;28;19962;-66
2021/12/18 05:54:04;;;;;;;;;;;1.00;91.50;;;;;;5051677;28;19949;-66
2021/12/18 05:56:29;;;;;;;;;;;0.80;91.40;;;;;;5052265;28;20011;-66
2021/12/18 05:58:55;;;;;;;;;;;0.80;91.70;;;;;;5053454;28;20407;-66
2021/12/18 06:01:21;;;;;;;;;;;0.90;91.80;;;;;;5052687;28;19949;-66
2021/12/18 06:03:46;;;;;;;;;;;1.10;92.00;;;;;;5053446;28;19946;-66
2021/12/18 06:06:12;;;;;;;;;;;1.20;92.10;;;;;;5053708;28;20414;-66
2021/12/18 06:08:38;;;;;;;;;;;1.40;92.20;;;;;;5052276;28;20328;-66
2021/12/18 06:11:09;;;;;;;;;;;1.40;92.00;;;;;;5052142;28;20449;-66
2021/12/18 06:13:35;;;;;;;;;;;1.40;91.30;;;;;;5052961;28;20399;-66
2021/12/18 06:16:00;;;;;;;;;;;1.30;91.20;;;;;;5053257;28;19986;-66
2021/12/18 06:18:26;;;;;;;;;;;1.40;91.20;;;;;;5051933;28;20423;-66
2021/12/18 06:20:51;;;;;;;;;;;1.50;91.00;;;;;;5053067;28;19941;-66
2021/12/18 06:23:17;;;;;;;;;;;1.50;90.80;;;;;;5053188;28;19953;-66
2021/12/18 06:25:42;;;;;;;;;;;1.50;91.20;;;;;;5053090;28;20035;-66
2021/12/18 06:28:08;;;;;;;;;;;1.60;91.20;;;;;;5053017;28;20035;-66
2021/12/18 06:30:34;;;;;;;;;;;1.60;91.30;;;;;;5053103;28;19968;-66
2021/12/18 06:32:59;;;;;;;;;;;1.50;91.30;;;;;;5053002;28;19983;-65
2021/12/18 06:35:25;;;;;;;;;;;1.60;91.20;;;;;;5042578;28;20407;-66
2021/12/18 06:37:50;;;;;;;;;;;1.50;91.20;;;;;;5033870;28;20150;-66
2021/12/18 06:40:16;;;;;;;;;;;1.50;91.40;;;;;;5050496;28;20316;-67
2021/12/18 06:42:43;;;;;;;;;;;1.50;91.40;;;;;;5052489;28;19949;-66
2021/12/18 06:45:09;;;;;;;;;;;1.50;91.60;;;;;;5047506;28;19953;-66
2021/12/18 06:47:34;;;;;;;;;;;1.70;91.50;;;;;;5042894;28;19983;-66
2021/12/18 06:50:00;;;;;;;;;;;1.80;91.20;;;;;;5048062;28;19947;-66
2021/12/18 06:52:25;;;;;;;;;;;2.00;90.90;;;;;;5045961;28;19990;-66
2021/12/18 06:54:51;;;;;;;;;;;1.80;90.20;;;;;;5051247;28;19954;-66
2021/12/18 06:57:22;;;;;;;;;;;1.70;90.60;;;;;;5052283;28;20075;-66
2021/12/18 06:59:47;;;;;;;;;;;1.60;91.30;;;;;;5052659;28;20062;-66
2021/12/18 07:02:13;;;;;;;;;;;1.50;91.80;;;;;;5051601;28;20023;-66
2021/12/18 07:04:39;;;;;;;;;;;1.50;91.90;;;;;;5051450;28;19945;-66
2021/12/18 07:07:04;;;;;;;;;;;1.60;91.70;;;;;;5052267;28;20430;-66
2021/12/18 07:09:30;;;;;;;;;;;1.70;91.60;;;;;;5053472;28;19983;-66
2021/12/18 07:11:55;;;;;;;;;;;1.60;91.70;;;;;;5056458;28;19972;-66
2021/12/18 07:14:21;;;;;;;;;;;1.50;92.00;;;;;;5056662;28;19974;-66
2021/12/18 07:16:46;;;;;;;;;;;1.40;92.20;;;;;;5056608;28;19996;-66
2021/12/18 07:19:12;;;;;;;;;;;1.50;92.60;;;;;;5056421;28;20019;-66
2021/12/18 07:21:37;;;;;;;;;;;1.50;92.70;;;;;;5056411;28;20379;-66
2021/12/18 07:24:03;;;;;;;;;;;1.60;92.80;;;;;;5056227;28;20328;-66
2021/12/18 07:26:30;;;;;;;;;;;1.70;93.00;;;;;;5055037;28;20300;-66
2021/12/18 07:28:56;;;;;;;;;;;1.80;93.10;;;;;;5053731;28;20070;-66
2021/12/18 07:31:22;;;;;;;;;;;1.80;93.20;;;;;;5055812;28;20381;-66
2021/12/18 07:33:47;;;;;;;;;;;1.90;93.10;;;;;;5052522;28;19980;-66
2021/12/18 07:36:14;;;;;;;;;;;1.90;93.00;;;;;;5052216;28;19954;-66
2021/12/18 07:38:40;;;;;;;;;;;1.80;92.90;;;;;;5041389;28;19964;-66
2021/12/18 07:41:06;;;;;;;;;;;1.70;92.90;;;;;;5046412;28;19943;-66
2021/12/18 07:43:31;;;;;;;;;;;1.70;93.00;;;;;;5051934;28;19947;-66
2021/12/18 07:45:57;;;;;;;;;;;1.90;92.90;;;;;;5054031;28;20041;-66
2021/12/18 07:48:22;;;;;;;;;;;1.80;92.80;;;;;;5053071;28;20399;-66
2021/12/18 07:50:48;;;;;;;;;;;1.80;92.70;;;;;;5055019;28;20295;-66
2021/12/18 07:53:13;;;;;;;;;;;1.70;92.70;;;;;;5049965;28;20325;-66
2021/12/18 07:55:39;;;;;;;;;;;1.80;92.80;;;;;;5052976;28;20328;-66
2021/12/18 07:58:05;;;;;;;;;;;1.70;92.90;;;;;;5053013;28;19957;-66
2021/12/18 08:00:30;;;;;;;;;;;1.80;93.10;;;;;;5052615;28;19966;-66
2021/12/18 08:02:56;;;;;;;;;;;1.80;93.40;;;;;;5051703;28;19940;-66
2021/12/18 08:05:22;;;;;;;;;;;1.90;93.70;;;;;;5053752;28;20360;-66
2021/12/18 08:07:47;;;;;;;;;;;1.90;93.70;;;;;;5046294;28;20041;-66
2021/12/18 08:10:13;;;;;;;;;;;2.00;93.80;;;;;;5053249;28;20305;-66
2021/12/18 08:12:39;;;;;;;;;;;2.10;93.60;;;;;;5051748;28;20320;-66
2021/12/18 08:15:05;;;;;;;;;;;2.20;93.40;;;;;;5046604;28;19958;-66
2021/12/18 08:17:30;;;;;;;;;;;2.30;93.30;;;;;;5052448;28;19961;-66
2021/12/18 08:19:56;;;;;;;;;;;2.40;92.70;;;;;;5052021;28;19961;-66
2021/12/18 08:22:22;;;;;;;;;;;2.40;92.20;;;;;;5052515;28;20312;-66
2021/12/18 08:24:47;;;;;;;;;;;2.40;92.10;;;;;;5054681;28;19943;-66
2021/12/18 08:27:13;;;;;;;;;;;2.40;91.50;;;;;;5053007;28;19957;-66
2021/12/18 08:29:39;;;;;;;;;;;2.50;91.60;;;;;;5051930;28;19954;-66
2021/12/18 08:32:04;;;;;;;;;;;2.70;91.90;;;;;;5053239;28;20366;-66
2021/12/18 08:34:30;;;;;;;;;;;2.80;92.20;;;;;;5053192;28;19946;-66
2021/12/18 08:36:55;;;;;;;;;;;3.00;92.20;;;;;;5050718;28;20388;-66
2021/12/18 08:39:21;;;;;;;;;;;3.20;91.70;;;;;;5054173;28;20318;-66
2021/12/18 08:41:46;;;;;;;;;;;3.20;90.70;;;;;;5052577;28;20002;-66
2021/12/18 08:44:13;;;;;;;;;;;3.30;90.80;;;;;;5052557;28;19943;-66
2021/12/18 08:46:39;;;;;;;;;;;3.50;90.80;;;;;;5047031;28;19968;-66
2021/12/18 08:49:05;;;;;;;;;;;3.60;90.10;;;;;;5048673;28;20005;-66
2021/12/18 08:51:31;;;;;;;;;;;3.70;90.00;;;;;;5046121;28;19996;-66
2021/12/18 08:53:56;;;;;;;;;;;3.70;88.70;;;;;;5052783;28;20043;-66
2021/12/18 08:56:22;;;;;;;;;;;3.50;87.70;;;;;;5038450;28;20051;-66
2021/12/18 08:58:50;;;;;;;;;;;3.40;88.30;;;;;;5054559;28;20339;-66
2021/12/18 09:01:15;;;;;;;;;;;3.30;89.30;;;;;;5046554;28;19953;-66
2021/12/18 09:03:41;;;;;;;;;;;3.30;89.40;;;;;;5043654;28;19956;-66
2021/12/18 09:06:06;;;;;;;;;;;3.10;90.40;;;;;;5041656;28;19948;-66
2021/12/18 09:08:32;;;;;;;;;;;3.10;90.70;;;;;;5046605;28;20066;-66
2021/12/18 09:10:58;;;;;;;;;;;3.20;90.90;;;;;;5052422;28;19984;-66
2021/12/18 09:13:23;;;;;;;;;;;3.40;91.10;;;;;;5050444;28;19980;-66
2021/12/18 09:15:49;;;;;;;;;;;3.60;91.20;;;;;;5053507;28;20044;-66
2021/12/18 09:18:14;;;;;;;;;;;3.80;91.20;;;;;;5037599;28;19990;-66
2021/12/18 09:20:44;;;;;;;;;;;3.80;90.50;;;;;;5046621;28;19978;-66
2021/12/18 09:23:12;;;;;;;;;;;3.80;90.90;;;;;;5050864;28;19955;-66
2021/12/18 09:25:38;;;;;;;;;;;4.00;91.10;;;;;;5047386;28;19952;-66
2021/12/18 09:28:04;;;;;;;;;;;4.20;90.90;;;;;;5050950;28;19948;-66
2021/12/18 09:30:29;;;;;;;;;;;4.30;90.00;;;;;;5051102;28;20395;-66
2021/12/18 09:32:55;;;;;;;;;;;4.00;90.20;;;;;;5047254;28;20158;-66
2021/12/18 09:35:21;;;;;;;;;;;3.90;91.00;;;;;;5049050;28;19952;-66
2021/12/18 09:37:47;;;;;;;;;;;3.90;91.60;;;;;;5053389;28;19955;-66
2021/12/18 09:40:13;;;;;;;;;;;4.10;91.80;;;;;;5047795;28;20295;-66
2021/12/18 09:42:39;;;;;;;;;;;4.20;92.30;;;;;;5051916;28;19949;-66
2021/12/18 09:45:05;;;;;;;;;;;4.20;92.70;;;;;;5052562;28;19953;-67
2021/12/18 09:47:31;;;;;;;;;;;4.30;92.90;;;;;;5047520;28;19989;-66
2021/12/18 09:49:57;;;;;;;;;;;4.50;93.20;;;;;;5040948;28;19988;-67
2021/12/18 09:52:25;;;;;;;;;;;4.90;92.70;;;;;;5043127;28;19962;-67
2021/12/18 09:54:57;;;;;;;;;;;5.20;92.10;;;;;;5050165;28;19955;-67
2021/12/18 09:57:22;;;;;;;;;;;5.50;91.60;;;;;;5046016;28;19992;-66
2021/12/18 09:59:48;;;;;;;;;;;5.70;91.70;;;;;;5044952;28;20009;-65
2021/12/18 10:02:14;;;;;;;;;;;5.90;91.60;;;;;;5039650;28;19960;-65
2021/12/18 10:04:39;;;;;;;;;;;6.00;90.90;;;;;;5045367;28;19974;-65
2021/12/18 10:07:17;;;;;;;;;;;6.30;89.00;;;;;;5049772;28;20320;-66
2021/12/18 10:09:42;;;;;;;;;;;6.40;88.30;;;;;;5051602;28;19968;-65
2021/12/18 10:12:13;;;;;;;;;;;6.70;87.30;;;;;;5044403;28;20005;-65
2021/12/18 10:14:59;;;;;;;;;;;7.00;85.70;;;;;;5050376;28;19945;-65
2021/12/18 10:17:26;;;;;;;;;;;7.40;83.80;;;;;;5042045;28;19963;-65
2021/12/18 10:19:53;;;;;;;;;;;7.50;85.20;;;;;;5044941;28;20048;-65
2021/12/18 10:22:19;;;;;;;;;;;7.30;85.90;;;;;;5043150;28;19946;-65
2021/12/18 10:24:46;;;;;;;;;;;6.80;86.80;;;;;;5052305;28;19996;-65
2021/12/18 10:27:22;;;;;;;;;;;6.50;88.10;;;;;;5047783;28;20099;-65
2021/12/18 10:29:49;;;;;;;;;;;6.40;89.50;;;;;;5049472;28;20062;-65
2021/12/18 10:32:17;;;;;;;;;;;6.70;89.80;;;;;;5052681;28;19953;-65
2021/12/18 10:34:48;;;;;;;;;;;6.90;89.20;;;;;;5042924;28;19946;-65
2021/12/18 10:37:21;;;;;;;;;;;6.70;88.40;;;;;;5046621;28;20389;-65
2021/12/18 10:39:50;;;;;;;;;;;6.50;89.00;;;;;;5046873;28;20435;-65
2021/12/18 10:42:21;;;;;;;;;;;6.40;89.80;;;;;;5047571;28;19979;-65
2021/12/18 10:44:55;;;;;;;;;;;6.10;90.50;;;;;;5048840;28;19944;-65
2021/12/18 10:47:21;;;;;;;;;;;6.00;91.10;;;;;;5048368;28;19958;-65
2021/12/18 10:49:47;;;;;;;;;;;5.70;91.60;;;;;;5048237;28;19943;-65
2021/12/18 10:52:12;;;;;;;;;;;5.80;92.00;;;;;;5052224;28;19997;-65
2021/12/18 10:54:38;;;;;;;;;;;6.10;92.00;;;;;;5046002;28;19954;-65
2021/12/18 10:57:04;;;;;;;;;;;6.30;91.70;;;;;;5047070;28;20322;-65
2021/12/18 10:59:31;;;;;;;;;;;6.40;91.20;;;;;;5048533;28;20019;-65
2021/12/18 11:01:58;;;;;;;;;;;6.40;91.00;;;;;;5048195;28;19950;-65
2021/12/18 11:04:31;;;;;;;;;;;6.30;91.20;;;;;;5045511;28;19957;-65
2021/12/18 11:06:57;;;;;;;;;;;6.30;91.30;;;;;;5049110;28;19946;-66
2021/12/18 11:09:29;;;;;;;;;;;6.50;91.60;;;;;;5037017;28;20035;-65
2021/12/18 11:14:40;;;;;;;;;;;6.50;90.70;;;;;;5033193;28;19998;-65
2021/12/18 11:17:11;;;;;;;;;;;6.60;90.40;;;;;;5032924;28;19948;-65
2021/12/18 11:19:37;;;;;;;;;;;6.70;89.90;;;;;;5032804;28;19964;-65
2021/12/18 11:22:06;;;;;;;;;;;6.80;90.40;;;;;;5032913;28;19947;-65
2021/12/18 11:24:34;;;;;;;;;;;7.20;90.20;;;;;;5032477;28;19993;-65
2021/12/18 11:27:02;;;;;;;;;;;7.70;90.00;;;;;;5032556;28;19939;-65
2021/12/18 11:29:34;;;;;;;;;;;8.00;89.40;;;;;;5046734;28;19940;-65
2021/12/18 11:32:00;;;;;;;;;;;8.40;88.20;;;;;;5050333;28;19945;-65
2021/12/18 11:34:26;;;;;;;;;;;8.60;86.00;;;;;;5050394;28;19955;-65
2021/12/18 11:36:52;;;;;;;;;;;9.00;85.20;;;;;;5052556;28;19943;-65
2021/12/18 11:39:19;;;;;;;;;;;9.10;83.80;;;;;;5052486;28;19967;-65
2021/12/18 11:41:49;;;;;;;;;;;9.30;83.90;;;;;;5052779;28;20021;-65
2021/12/18 11:44:28;;;;;;;;;;;9.80;82.50;;;;;;5052549;28;19946;-65
2021/12/18 11:46:54;;;;;;;;;;;10.30;78.90;;;;;;5052452;28;19990;-65
2021/12/18 11:49:21;;;;;;;;;;;10.50;77.20;;;;;;5052398;28;19942;-65
2021/12/18 11:52:01;;;;;;;;;;;10.70;71.30;;;;;;5052632;28;19944;-65
2021/12/18 11:54:39;;;;;;;;;;;10.60;73.10;;;;;;5052403;28;19942;-65
2021/12/18 11:57:04;;;;;;;;;;;10.70;72.20;;;;;;5055685;28;19944;-65
2021/12/18 11:59:37;;;;;;;;;;;11.10;72.10;;;;;;5055857;28;19959;-65
2021/12/18 12:02:03;;;;;;;;;;;11.70;70.30;;;;;;5055914;28;20384;-65
2021/12/18 12:04:48;;;;;;;;;;;12.10;67.20;;;;;;5055913;28;20027;-65
2021/12/18 12:07:21;;;;;;;;;;;12.70;66.50;;;;;;5055785;28;20063;-65
2021/12/18 12:10:05;;;;;;;;;;;13.40;62.10;;;;;;5055762;28;20046;-65
2021/12/18 12:12:48;;;;;;;;;;;13.50;63.00;;;;;;5055550;28;19987;-65
2021/12/18 12:15:15;;;;;;;;;;;13.70;62.80;;;;;;5055709;28;19954;-65
2021/12/18 12:17:54;;;;;;;;;;;13.30;63.70;;;;;;5055638;28;20027;-65
2021/12/18 12:20:37;;;;;;;;;;;12.90;65.40;;;;;;5055769;28;20010;-65
2021/12/18 12:23:03;;;;;;;;;;;12.50;65.40;;;;;;5055514;28;19993;-65
2021/12/18 12:25:36;;;;;;;;;;;12.20;64.80;;;;;;5055369;28;19942;-65
2021/12/18 12:28:06;;;;;;;;;;;12.10;66.80;;;;;;5054053;28;19988;-65
2021/12/18 12:30:36;;;;;;;;;;;12.20;67.80;;;;;;5055392;28;19945;-65
2021/12/18 12:33:03;;;;;;;;;;;12.60;66.90;;;;;;5055340;28;20388;-65
2021/12/18 12:35:29;;;;;;;;;;;12.90;66.10;;;;;;5055353;28;20021;-65
2021/12/18 12:37:55;;;;;;;;;;;13.10;64.00;;;;;;5055260;28;19941;-65
2021/12/18 12:40:28;;;;;;;;;;;13.20;63.60;;;;;;5055110;28;19962;-65
2021/12/18 12:43:13;;;;;;;;;;;13.00;63.70;;;;;;5055145;28;19985;-65
2021/12/18 12:45:40;;;;;;;;;;;13.00;63.50;;;;;;5055147;28;20408;-65
2021/12/18 12:48:06;;;;;;;;;;;12.80;66.10;;;;;;5055071;28;20023;-65
2021/12/18 12:50:32;;;;;;;;;;;12.50;68.80;;;;;;5054979;28;20068;-65
2021/12/18 12:53:08;;;;;;;;;;;12.10;68.30;;;;;;5054910;28;19944;-65
2021/12/18 12:55:44;;;;;;;;;;;11.90;70.60;;;;;;5054890;28;19944;-65
2021/12/18 12:58:20;;;;;;;;;;;12.00;71.60;;;;;;5054832;28;19972;-65
2021/12/18 13:00:47;;;;;;;;;;;12.20;69.90;;;;;;5054722;28;19964;-65
2021/12/18 13:03:14;;;;;;;;;;;12.60;68.70;;;;;;5054836;28;19953;-65
2021/12/18 13:05:58;;;;;;;;;;;12.80;66.60;;;;;;5054751;28;19997;-65
2021/12/18 13:08:24;;;;;;;;;;;12.80;66.60;;;;;;5053915;28;19941;-65
2021/12/18 13:10:53;;;;;;;;;;;13.00;66.00;;;;;;5068104;22;20032;-65
2021/12/18 13:13:20;;;;;;;;;;;13.00;66.00;;;;;;5074666;28;19965;-65
2021/12/18 13:16:03;;;;;;;;;;;12.90;67.20;;;;;;5074566;28;19991;-65
2021/12/18 13:18:44;;;;;;;;;;;12.70;68.00;;;;;;5074422;28;19946;-65
2021/12/18 13:21:11;;;;;;;;;;;12.30;69.40;;;;;;5074371;28;19946;-65
2021/12/18 13:23:53;;;;;;;;;;;12.20;69.80;;;;;;5073600;28;20521;-65
2021/12/18 13:26:32;;;;;;;;;;;12.10;70.60;;;;;;5074216;28;20436;-65
2021/12/18 13:29:14;;;;;;;;;;;12.40;69.30;;;;;;5074266;28;19942;-65
2021/12/18 13:31:44;;;;;;;;;;;12.40;69.80;;;;;;5074154;28;19947;-65
2021/12/18 13:34:10;;;;;;;;;;;12.60;68.60;;;;;;5074256;28;19953;-65
2021/12/18 13:36:41;;;;;;;;;;;12.60;68.90;;;;;;5074201;28;19954;-65
2021/12/18 13:39:07;;;;;;;;;;;12.70;68.50;;;;;;5074285;28;20059;-65
2021/12/18 13:41:33;;;;;;;;;;;12.50;69.20;;;;;;5074115;28;19942;-65
2021/12/18 13:43:58;;;;;;;;;;;12.50;69.40;;;;;;5074046;28;19936;-65
2021/12/18 13:46:28;;;;;;;;;;;12.60;69.50;;;;;;5072767;28;20046;-65
2021/12/18 13:48:54;;;;;;;;;;;12.60;69.20;;;;;;5072599;28;20074;-65
2021/12/18 13:51:20;;;;;;;;;;;12.70;69.10;;;;;;5073891;28;20037;-65
2021/12/18 13:53:59;;;;;;;;;;;12.40;70.50;;;;;;5073809;28;19999;-65
2021/12/18 13:56:27;;;;;;;;;;;12.20;71.40;;;;;;5073734;28;20475;-65
2021/12/18 13:58:52;;;;;;;;;;;12.00;72.30;;;;;;5073713;28;20005;-65
2021/12/18 14:01:18;;;;;;;;;;;11.90;73.00;;;;;;5073699;28;19949;-65
2021/12/18 14:03:46;;;;;;;;;;;11.80;73.60;;;;;;5072359;28;19935;-65
2021/12/18 14:06:18;;;;;;;;;;;11.90;74.10;;;;;;5073703;28;19981;-65
2021/12/18 14:08:49;;;;;;;;;;;12.00;73.70;;;;;;5073562;28;20317;-65
2021/12/18 14:11:17;;;;;;;;;;;12.00;73.20;;;;;;5073568;28;19982;-65
2021/12/18 14:13:42;;;;;;;;;;;11.90;72.20;;;;;;5073473;28;20320;-65
2021/12/18 14:16:08;;;;;;;;;;;11.80;71.90;;;;;;5073418;28;19945;-65
2021/12/18 14:18:35;;;;;;;;;;;11.70;71.80;;;;;;5072789;28;19952;-65
2021/12/18 14:21:02;;;;;;;;;;;11.60;72.20;;;;;;5073187;28;19946;-65
2021/12/18 14:23:31;;;;;;;;;;;11.20;72.70;;;;;;5073364;28;20030;-65
2021/12/18 14:26:18;;;;;;;;;;;10.80;74.70;;;;;;5072503;28;19943;-65
2021/12/18 14:28:44;;;;;;;;;;;10.60;75.80;;;;;;5063366;28;19948;-65
2021/12/18 14:31:26;;;;;;;;;;;10.60;76.40;;;;;;5073081;28;19948;-65
2021/12/18 14:33:53;;;;;;;;;;;10.70;76.70;;;;;;5073334;28;19947;-64
2021/12/18 14:36:37;;;;;;;;;;;10.50;77.40;;;;;;5073261;28;20388;-65
2021/12/18 14:39:02;;;;;;;;;;;10.70;77.60;;;;;;5073250;28;20327;-65
2021/12/18 14:41:29;;;;;;;;;;;10.70;77.10;;;;;;5073300;28;19944;-65
2021/12/18 14:43:58;;;;;;;;;;;10.80;76.70;;;;;;5073252;28;19940;-65
2021/12/18 14:46:24;;;;;;;;;;;10.50;76.00;;;;;;5073265;28;19950;-65
2021/12/18 14:48:49;;;;;;;;;;;10.10;77.00;;;;;;5073488;28;20011;-65
2021/12/18 14:51:23;;;;;;;;;;;9.90;76.70;;;;;;5073427;28;19951;-65
2021/12/18 14:53:59;;;;;;;;;;;9.60;77.10;;;;;;5073241;28;19983;-65
2021/12/18 14:56:24;;;;;;;;;;;9.10;78.20;;;;;;5073303;28;19953;-65
2021/12/18 14:58:50;;;;;;;;;;;8.70;79.30;;;;;;5072957;28;20426;-65
2021/12/18 15:01:17;;;;;;;;;;;8.50;80.10;;;;;;5072957;28;19945;-65
2021/12/18 15:03:48;;;;;;;;;;;8.30;80.70;;;;;;5071818;28;20022;-65
2021/12/18 15:06:16;;;;;;;;;;;7.90;81.70;;;;;;5072949;28;20001;-65
2021/12/18 15:08:50;;;;;;;;;;;7.80;82.00;;;;;;5071616;28;20021;-65
2021/12/18 15:11:26;;;;;;;;;;;7.70;82.00;;;;;;5072802;28;19984;-65
2021/12/18 15:14:11;;;;;;;;;;;7.50;82.20;;;;;;5073005;28;19941;-65
2021/12/18 15:16:44;;;;;;;;;;;7.40;82.80;;;;;;5072873;28;19938;-65
2021/12/18 15:19:21;;;;;;;;;;;7.00;83.20;;;;;;5072777;28;19968;-65
2021/12/18 15:21:50;;;;;;;;;;;6.70;84.20;;;;;;5072914;28;19943;-65
2021/12/18 15:24:17;;;;;;;;;;;6.40;85.50;;;;;;5072853;28;20413;-65
2021/12/18 15:26:43;;;;;;;;;;;6.00;86.40;;;;;;5072623;28;19982;-65